Time;durP1;ratioP1;P1;durP2;ratioP2;P2;SDS_P1;SDS_P2;PMS_P1;PMS_P2;Temp;Humidity;BMP_temperature;BMP_pressure;BME280_temperature;BME280_humidity;BME280_pressure;Samples;Min_cycle;Max_cycle;Signal;HPM_P1;HPM_P2
2023/05/08 00:01:11;;;;;;;4.47;2.70;;;16.90;99.90;;;17.17;100.00;101372.56;5182754;28;20048;-67
2023/05/08 00:03:43;;;;;;;3.55;2.40;;;16.90;99.90;;;17.15;100.00;101361.09;5166705;28;20391;-67
2023/05/08 00:06:16;;;;;;;4.63;2.95;;;16.80;99.90;;;17.11;100.00;101364.56;5183865;28;20046;-67
2023/05/08 00:08:48;;;;;;;4.32;2.72;;;16.80;99.90;;;17.06;100.00;101367.09;5166035;28;20078;-67
2023/05/08 00:11:20;;;;;;;5.05;2.75;;;16.80;99.90;;;17.05;100.00;101375.88;5183920;28;20042;-67
2023/05/08 00:13:52;;;;;;;4.43;2.72;;;16.80;99.90;;;17.06;100.00;101377.66;5183847;28;20415;-66
2023/05/08 00:16:26;;;;;;;5.90;2.90;;;16.80;99.90;;;17.01;100.00;101380.19;5166009;28;20414;-67
2023/05/08 00:18:58;;;;;;;4.32;2.75;;;16.70;99.90;;;16.99;100.00;101381.91;5183517;28;20518;-67
2023/05/08 00:21:31;;;;;;;3.28;2.55;;;16.70;99.90;;;16.99;100.00;101381.91;5183712;28;20038;-67
2023/05/08 00:24:03;;;;;;;4.57;3.00;;;16.70;99.90;;;16.96;100.00;101379.25;5187968;28;20054;-67
2023/05/08 00:26:35;;;;;;;4.00;2.85;;;16.70;99.90;;;16.95;100.00;101380.13;5187891;28;20069;-66
2023/05/08 00:29:07;;;;;;;3.92;2.72;;;16.70;99.90;;;16.97;100.00;101382.75;5170811;28;20042;-67
2023/05/08 00:31:41;;;;;;;4.25;2.58;;;16.70;99.90;;;16.95;100.00;101382.75;5188267;28;20391;-66
2023/05/08 00:34:13;;;;;;;4.28;2.80;;;16.70;99.90;;;16.96;100.00;101388.91;5170167;28;20511;-67
2023/05/08 00:37:29;;;;;;;4.63;2.75;;;16.60;99.90;;;16.95;100.00;101385.38;5169729;28;20128;-69
2023/05/08 00:40:02;;;;;;;4.30;2.65;;;16.70;99.90;;;16.95;100.00;101388.00;5181542;28;20096;-68
2023/05/08 00:42:35;;;;;;;5.03;2.75;;;16.60;99.90;;;16.95;100.00;101385.38;5180439;28;20458;-69
2023/05/08 00:45:09;;;;;;;3.00;2.30;;;16.60;99.90;;;16.95;100.00;101388.00;5183191;28;20046;-68
2023/05/08 00:47:43;;;;;;;3.50;2.35;;;16.70;99.90;;;16.95;100.00;101387.09;5155938;28;20454;-68
2023/05/08 00:50:15;;;;;;;3.53;2.33;;;16.60;99.90;;;16.92;100.00;101380.03;5170060;28;20044;-68
2023/05/08 00:52:47;;;;;;;4.50;2.90;;;16.60;99.90;;;16.91;100.00;101390.56;5185681;28;20042;-68
2023/05/08 00:55:20;;;;;;;4.68;2.83;;;16.60;99.90;;;16.89;100.00;101395.78;5173717;28;20500;-68
2023/05/08 00:57:53;;;;;;;3.92;2.50;;;16.60;99.90;;;16.89;100.00;101398.44;5182761;28;20356;-68
2023/05/08 01:00:27;;;;;;;4.00;2.60;;;16.60;99.90;;;16.89;100.00;101390.53;5177697;28;20049;-67
2023/05/08 01:03:00;;;;;;;3.92;2.72;;;16.60;99.90;;;16.87;100.00;101394.84;5184338;28;20120;-68
2023/05/08 01:05:33;;;;;;;3.25;2.70;;;16.60;99.90;;;16.88;100.00;101403.66;5173992;28;20042;-68
2023/05/08 01:08:06;;;;;;;3.38;2.47;;;16.60;99.90;;;16.86;100.00;101401.00;5176187;28;20289;-68
2023/05/08 01:10:53;;;;;;;5.60;3.05;;;16.60;99.90;;;16.83;100.00;101395.69;5164185;28;20057;-68
2023/05/08 01:13:36;;;;;;;4.15;3.47;;;16.50;99.90;;;16.79;100.00;101393.84;5173741;28;20038;-68
2023/05/08 01:16:24;;;;;;;4.60;2.90;;;16.50;99.90;;;16.76;100.00;101392.06;5166343;28;20127;-68
2023/05/08 01:19:40;;;;;;;4.82;3.13;;;16.50;99.90;;;16.73;100.00;101398.97;5162287;28;20117;-68
2023/05/08 01:22:44;;;;;;;5.22;3.00;;;16.50;99.90;;;16.74;100.00;101406.03;5156127;28;20042;-68
2023/05/08 01:25:48;;;;;;;4.28;2.70;;;16.50;99.90;;;16.73;100.00;101402.50;5164055;28;20133;-68
2023/05/08 01:28:44;;;;;;;4.45;3.05;;;16.50;99.90;;;16.72;100.00;101399.84;5157120;28;20046;-69
2023/05/08 01:31:25;;;;;;;4.20;2.92;;;16.50;99.90;;;16.67;100.00;101401.47;5163697;28;20491;-69
2023/05/08 01:34:06;;;;;;;3.83;2.80;;;16.40;99.90;;;16.68;100.00;101398.84;5147294;28;20074;-69
2023/05/08 01:36:48;;;;;;;4.72;3.38;;;16.40;99.90;;;16.65;100.00;101398.81;5151886;28;20413;-68
2023/05/08 01:39:27;;;;;;;5.25;3.20;;;16.40;99.90;;;16.63;100.00;101394.38;5171957;28;20222;-68
2023/05/08 01:42:07;;;;;;;4.40;2.83;;;16.40;99.90;;;16.60;100.00;101399.56;5161790;28;20515;-68
2023/05/08 01:44:45;;;;;;;6.85;3.53;;;16.30;99.90;;;16.47;100.00;101401.94;5143792;28;20576;-67
2023/05/08 01:47:20;;;;;;;6.45;3.47;;;16.30;99.90;;;16.41;100.00;101393.94;5156318;28;20038;-69
2023/05/08 01:50:06;;;;;;;5.57;3.47;;;16.20;99.90;;;16.37;100.00;101394.75;5148368;28;20041;-68
2023/05/08 01:52:45;;;;;;;5.72;3.33;;;16.20;99.90;;;16.39;100.00;101393.03;5152842;28;20043;-68
2023/05/08 01:55:26;;;;;;;5.50;3.42;;;16.20;99.90;;;16.41;100.00;101399.19;5156511;28;20462;-70
2023/05/08 01:57:59;;;;;;;5.57;3.03;;;16.20;99.90;;;16.40;100.00;101394.78;5163125;28;20052;-69
2023/05/08 02:00:32;;;;;;;5.25;3.15;;;16.20;99.90;;;16.38;100.00;101396.50;5163337;28;20046;-68
2023/05/08 02:03:08;;;;;;;6.30;3.72;;;16.20;99.90;;;16.34;100.00;101399.03;5162480;28;20072;-68
2023/05/08 02:05:43;;;;;;;8.35;3.90;;;16.20;99.90;;;16.28;100.00;101398.03;5157913;28;20538;-68
2023/05/08 02:08:15;;;;;;;5.53;3.67;;;16.10;99.90;;;16.28;100.00;101407.69;5158805;28;20043;-68
2023/05/08 02:10:50;;;;;;;7.97;3.85;;;16.10;99.90;;;16.25;100.00;101399.75;5152166;28;20035;-68
2023/05/08 02:13:23;;;;;;;6.47;3.55;;;16.10;99.90;;;16.26;100.00;101406.78;5171532;28;20161;-68
2023/05/08 02:15:58;;;;;;;6.70;3.80;;;16.00;99.90;;;16.28;100.00;101407.69;5170649;28;20049;-67
2023/05/08 02:18:32;;;;;;;6.05;3.60;;;16.10;99.90;;;16.29;100.00;101412.09;5159177;28;20100;-69
2023/05/08 02:21:06;;;;;;;;;;;16.10;99.90;;;16.28;100.00;101415.59;5164693;28;20049;-68
2023/05/08 02:23:38;;;;;;;7.05;3.60;;;16.10;99.90;;;16.29;100.00;101414.72;5146544;28;19922;-68
2023/05/08 02:26:14;;;;;;;6.40;3.72;;;16.10;99.90;;;16.29;100.00;101414.72;5162412;28;20181;-68
2023/05/08 02:28:46;;;;;;;7.03;3.92;;;16.10;99.90;;;16.28;100.00;101416.47;5164265;28;20042;-69
2023/05/08 02:31:20;;;;;;;6.22;3.58;;;16.10;99.90;;;16.28;100.00;101416.47;5162564;28;20074;-68
2023/05/08 02:33:53;;;;;;;5.38;3.13;;;16.00;99.90;;;16.30;100.00;101419.16;5142362;28;20381;-68
2023/05/08 02:36:28;;;;;;;5.50;3.22;;;16.10;99.90;;;16.32;100.00;101427.97;5146393;28;20046;-68
2023/05/08 02:39:03;;;;;;;5.85;3.17;;;16.10;99.90;;;16.32;100.00;101424.44;5146071;28;20499;-69
2023/05/08 02:41:40;;;;;;;5.25;3.05;;;16.10;99.90;;;16.33;100.00;101426.22;5146095;28;20038;-68
2023/05/08 02:44:14;;;;;;;6.43;3.53;;;16.00;99.90;;;16.32;100.00;101422.69;5146004;28;20097;-68
2023/05/08 02:46:53;;;;;;;6.45;3.35;;;16.10;99.90;;;16.28;100.00;101426.09;5163347;28;20053;-68
2023/05/08 02:49:32;;;;;;;5.50;3.63;;;16.00;99.90;;;16.28;100.00;101420.84;5146685;28;20046;-68
2023/05/08 02:52:13;;;;;;;5.93;3.50;;;16.00;99.90;;;16.25;100.00;101424.31;5163215;28;20587;-68
2023/05/08 02:54:56;;;;;;;5.50;3.33;;;16.00;99.90;;;16.24;100.00;101424.28;5142560;28;20046;-68
2023/05/08 02:57:39;;;;;;;5.10;3.45;;;16.00;99.90;;;16.22;100.00;101421.59;5155045;28;20134;-68
2023/05/08 03:00:17;;;;;;;6.18;3.58;;;16.00;99.90;;;16.23;100.00;101427.75;5144247;28;20526;-69
2023/05/08 03:02:57;;;;;;;6.22;3.63;;;16.00;99.90;;;16.21;100.00;101421.56;5163386;28;20156;-68
2023/05/08 03:05:32;;;;;;;5.45;3.47;;;16.00;99.90;;;16.20;100.00;101435.59;5145833;28;20050;-69
2023/05/08 03:08:21;;;;;;;5.88;3.55;;;16.00;99.90;;;16.20;100.00;101435.59;5162909;28;20051;-68
2023/05/08 03:10:58;;;;;;;6.22;3.65;;;15.90;99.90;;;16.20;100.00;101438.22;5145152;28;20043;-68
2023/05/08 03:13:34;;;;;;;6.60;3.65;;;16.00;99.90;;;16.21;100.00;101437.34;5156456;28;20044;-69
2023/05/08 03:16:11;;;;;;;5.15;3.38;;;15.90;99.90;;;16.19;100.00;101439.94;5145554;28;20092;-69
2023/05/08 03:18:52;;;;;;;6.47;3.72;;;15.90;99.90;;;16.19;100.00;101439.06;5218604;23;20976;-78
2023/05/08 03:21:29;;;;;;;7.80;4.00;;;15.90;99.90;;;16.15;100.00;101439.84;5189464;28;20045;-78
2023/05/08 03:24:05;;;;;;;9.98;5.53;;;15.90;99.90;;;16.07;100.00;101429.16;5209875;28;20037;-78
2023/05/08 03:26:37;;;;;;;8.85;4.80;;;15.90;99.90;;;16.00;100.00;101435.13;5191708;28;20142;-78
2023/05/08 03:29:10;;;;;;;8.60;4.95;;;15.80;99.90;;;15.93;100.00;101428.84;5170804;28;20046;-79
2023/05/08 03:31:44;;;;;;;9.07;4.82;;;15.80;99.90;;;15.89;100.00;101427.00;5180706;28;20069;-78
2023/05/08 03:34:19;;;;;;;9.35;5.22;;;15.80;99.90;;;15.87;100.00;101418.19;5185422;28;20037;-78
2023/05/08 03:36:52;;;;;;;9.57;5.30;;;15.70;99.90;;;15.86;100.00;101426.94;5168336;28;20396;-78
2023/05/08 03:39:26;;;;;;;8.90;5.28;;;15.70;99.90;;;15.82;100.00;101419.81;5167962;28;20101;-78
2023/05/08 03:41:59;;;;;;;8.52;4.45;;;15.70;99.90;;;15.83;100.00;101418.97;5175093;28;20504;-78
2023/05/08 03:44:33;;;;;;;12.73;4.78;;;15.70;99.90;;;15.86;100.00;101421.69;5179067;28;20041;-80
2023/05/08 03:47:06;;;;;;;8.82;5.03;;;15.70;99.90;;;15.83;100.00;101416.31;5159350;28;20050;-78
2023/05/08 03:49:39;;;;;;;10.60;5.43;;;15.70;99.90;;;15.77;100.00;101421.44;5185385;28;20058;-79
2023/05/08 03:52:12;;;;;;;9.40;5.38;;;15.60;99.90;;;15.74;100.00;101416.13;5175837;28;20046;-78
2023/05/08 03:54:45;;;;;;;8.70;5.18;;;15.60;99.90;;;15.73;100.00;101422.25;5183955;28;20045;-78
2023/05/08 03:57:18;;;;;;;;;;;15.60;99.90;;;15.73;100.00;101424.88;5165175;28;20046;-78
2023/05/08 04:00:01;;;;;;;8.30;4.97;;;15.60;99.90;;;15.72;100.00;101428.34;5164472;28;20016;-78
2023/05/08 04:02:45;;;;;;;11.55;5.68;;;15.60;99.90;;;15.71;100.00;101426.56;5178754;28;20050;-78
2023/05/08 04:05:24;;;;;;;11.18;6.45;;;15.60;99.90;;;15.68;100.00;101437.88;5163852;28;20050;-77
2023/05/08 04:08:04;;;;;;;9.27;5.85;;;15.50;99.90;;;15.67;100.00;101441.38;5163910;28;20063;-76
2023/05/08 04:10:43;;;;;;;13.13;7.13;;;15.50;99.90;;;15.58;100.00;101430.59;5164346;28;20030;-82
2023/05/08 04:13:20;;;;;;;10.43;6.13;;;15.50;99.90;;;15.58;100.00;101433.22;5166327;28;20471;-78
2023/05/08 04:16:00;;;;;;;11.20;5.88;;;15.50;99.90;;;15.56;100.00;101431.41;5163067;28;20045;-78
2023/05/08 04:18:37;;;;;;;11.40;6.43;;;15.40;99.90;;;15.53;100.00;101431.34;5159724;28;20053;-78
2023/05/08 04:21:12;;;;;;;11.25;6.25;;;15.40;99.90;;;15.48;100.00;101425.97;5174699;28;20070;-78
2023/05/08 04:23:46;;;;;;;9.95;5.78;;;15.40;99.90;;;15.47;100.00;101421.56;5171573;28;20572;-78
2023/05/08 04:26:21;;;;;;;12.98;6.75;;;15.40;99.90;;;15.43;100.00;101420.59;5175994;28;20141;-78
2023/05/08 04:28:55;;;;;;;10.90;6.15;;;15.40;99.90;;;15.38;100.00;101422.22;5151976;28;20051;-78
2023/05/08 04:31:28;;;;;;;11.82;6.03;;;15.30;99.90;;;15.33;100.00;101422.97;5160078;28;20523;-76
2023/05/08 04:34:02;;;;;;;12.07;6.78;;;15.30;99.90;;;15.28;100.00;101433.34;5167957;28;20141;-78
2023/05/08 04:36:35;;;;;;;9.98;5.95;;;15.20;99.90;;;15.27;100.00;101433.31;5166524;28;20045;-78
2023/05/08 04:39:09;;;;;;;11.13;5.75;;;15.20;99.90;;;15.30;100.00;101433.38;5163160;28;20046;-78
2023/05/08 04:41:43;;;;;;;11.23;6.60;;;15.20;99.90;;;15.31;100.00;101438.66;5164858;28;20136;-78
2023/05/08 04:44:15;;;;;;;10.38;6.20;;;15.20;99.90;;;15.31;100.00;101436.03;5176844;28;20074;-78
2023/05/08 04:46:48;;;;;;;10.80;5.90;;;15.20;99.90;;;15.30;100.00;101434.28;5167871;28;20046;-79
2023/05/08 04:49:21;;;;;;;12.18;6.68;;;15.20;99.90;;;15.28;100.00;101441.25;5165193;28;20102;-79
2023/05/08 04:51:53;;;;;;;12.10;6.45;;;15.10;99.90;;;15.25;100.00;101440.25;5164659;28;20042;-78
2023/05/08 04:54:25;;;;;;;11.48;6.88;;;15.20;99.90;;;15.25;100.00;101442.88;5164231;28;20042;-78
2023/05/08 04:56:58;;;;;;;12.20;6.93;;;15.10;99.90;;;15.22;100.00;101446.31;5163495;28;20085;-78
2023/05/08 04:59:31;;;;;;;10.85;6.35;;;15.10;99.90;;;15.21;100.00;101447.19;5183742;28;20044;-78
2023/05/08 05:02:06;;;;;;;10.18;5.93;;;15.10;99.90;;;15.24;100.00;101444.63;5167742;28;20137;-78
2023/05/08 05:04:39;;;;;;;9.77;5.80;;;15.10;99.90;;;15.25;100.00;101456.00;5162272;28;20065;-79
2023/05/08 05:07:12;;;;;;;9.35;5.32;;;15.10;99.90;;;15.29;100.00;101450.00;5166272;28;20128;-77
2023/05/08 05:09:44;;;;;;;12.15;7.25;;;15.20;99.90;;;15.27;100.00;101460.47;5165680;28;20041;-78
2023/05/08 05:12:17;;;;;;;10.50;5.70;;;15.10;99.90;;;15.29;100.00;101458.78;5183990;28;20129;-79
2023/05/08 05:14:50;;;;;;;9.65;5.85;;;15.10;99.90;;;15.32;100.00;101466.75;5171630;28;20065;-78
2023/05/08 05:17:22;;;;;;;9.25;6.07;;;15.20;99.90;;;15.35;100.00;101469.44;5181864;28;20099;-82
2023/05/08 05:19:54;;;;;;;9.48;5.43;;;15.20;99.90;;;15.39;100.00;101479.19;5165514;28;20424;-82
2023/05/08 05:22:27;;;;;;;8.45;5.25;;;15.20;99.90;;;15.40;100.00;101478.34;5169458;28;20049;-81
2023/05/08 05:25:00;;;;;;;10.05;5.85;;;15.30;99.90;;;15.42;100.00;101481.00;5165573;28;20042;-82
2023/05/08 05:27:35;;;;;;;9.43;5.28;;;15.20;99.90;;;15.43;100.00;101483.66;5173827;28;20069;-83
2023/05/08 05:30:08;;;;;;;9.55;5.45;;;15.30;99.90;;;15.43;100.00;101483.66;5173594;28;20046;-81
2023/05/08 05:32:41;;;;;;;10.93;6.13;;;15.30;99.90;;;15.41;100.00;101481.84;5174436;28;20049;-83
2023/05/08 05:35:14;;;;;;;13.65;7.00;;;15.30;99.90;;;15.40;100.00;101487.97;5188560;28;20400;-82
2023/05/08 05:37:46;;;;;;;12.85;6.55;;;15.30;99.90;;;15.39;100.00;101489.69;5190713;28;20060;-82
2023/05/08 05:40:19;;;;;;;9.70;5.70;;;15.20;99.90;;;15.42;100.00;101497.63;5170724;28;20132;-83
2023/05/08 05:42:52;;;;;;;8.30;5.20;;;15.30;99.90;;;15.44;100.00;101493.31;5160832;28;20046;-82
2023/05/08 05:45:25;;;;;;;10.40;6.35;;;15.30;99.90;;;15.48;100.00;101496.91;5171764;28;20073;-81
2023/05/08 05:47:57;;;;;;;9.80;5.95;;;15.30;99.90;;;15.47;100.00;101490.78;5168842;28;20054;-82
2023/05/08 05:50:31;;;;;;;12.48;6.35;;;15.30;99.90;;;15.45;100.00;101494.19;5172698;28;20034;-82
2023/05/08 05:53:04;;;;;;;10.15;5.68;;;15.30;99.90;;;15.44;100.00;101493.31;5172649;28;20042;-82
2023/05/08 05:55:36;;;;;;;12.23;6.68;;;15.40;99.90;;;15.39;100.00;101502.84;5189758;28;20037;-85
2023/05/08 05:58:10;;;;;;;10.52;5.80;;;15.30;99.90;;;15.39;100.00;101502.84;5188958;28;20056;-82
2023/05/08 06:00:42;;;;;;;10.80;6.22;;;15.30;99.90;;;15.38;100.00;101503.66;5205449;28;20503;-82
2023/05/08 06:03:14;;;;;;;11.30;6.35;;;15.30;99.90;;;15.41;100.00;101508.13;5172960;28;20511;-83
2023/05/08 06:05:48;;;;;;;11.07;6.30;;;15.30;99.90;;;15.41;100.00;101511.63;5172958;28;20042;-84
2023/05/08 06:08:20;;;;;;;10.70;6.53;;;15.30;99.90;;;15.38;100.00;101506.28;5170364;28;20041;-85
2023/05/08 06:10:52;;;;;;;9.40;5.75;;;15.30;99.90;;;15.42;100.00;101507.25;5169912;28;20069;-85
2023/05/08 06:13:25;;;;;;;10.35;6.22;;;15.30;99.90;;;15.43;100.00;101503.78;5171818;28;20042;-83
2023/05/08 06:15:57;;;;;;;9.55;6.05;;;15.30;99.90;;;15.46;100.00;101515.28;5165133;28;20045;-84
2023/05/08 06:18:30;;;;;;;11.98;6.65;;;15.40;99.90;;;15.47;100.00;101518.78;5188345;28;20049;-85
2023/05/08 06:21:02;;;;;;;9.73;6.05;;;15.30;99.90;;;15.47;100.00;101517.06;5179774;28;20052;-83
2023/05/08 06:23:35;;;;;;;10.25;6.13;;;15.30;99.90;;;15.46;100.00;101515.28;5172799;28;20100;-84
2023/05/08 06:26:07;;;;;;;10.30;5.68;;;15.30;99.90;;;15.47;100.00;101511.78;5171625;28;20050;-84
2023/05/08 06:28:40;;;;;;;9.05;5.78;;;15.40;99.90;;;15.51;100.00;101514.50;5172548;28;20042;-82
2023/05/08 06:31:12;;;;;;;11.05;6.72;;;15.30;99.90;;;15.54;100.00;101514.59;5176469;28;20049;-83
2023/05/08 06:33:45;;;;;;;11.02;6.40;;;15.40;99.90;;;15.54;100.00;101509.34;5192286;28;20044;-85
2023/05/08 06:36:17;;;;;;;10.70;6.32;;;15.40;99.90;;;15.54;100.00;101512.84;5196214;28;20501;-84
2023/05/08 06:38:49;;;;;;;9.50;5.53;;;15.40;99.90;;;15.54;100.00;101514.59;5191373;28;20038;-84
2023/05/08 06:41:21;;;;;;;9.60;5.63;;;15.30;99.90;;;15.56;100.00;101520.75;5190454;28;20041;-84
2023/05/08 06:43:55;;;;;;;11.13;6.07;;;15.40;99.90;;;15.58;100.00;101522.56;5197349;28;20045;-84
2023/05/08 06:46:28;;;;;;;12.43;7.28;;;15.40;99.90;;;15.55;100.00;101519.88;5172640;28;20054;-84
2023/05/08 06:49:00;;;;;;;12.05;7.22;;;15.40;99.90;;;15.53;100.00;101525.94;5189563;28;20129;-81
2023/05/08 06:51:34;;;;;;;12.95;6.97;;;15.50;99.90;;;15.53;100.00;101518.94;5189570;28;20038;-81
2023/05/08 06:54:07;;;;;;;10.40;6.13;;;15.40;99.90;;;15.58;100.00;101514.69;5197949;28;20057;-84
2023/05/08 06:56:39;;;;;;;13.02;6.65;;;15.50;99.90;;;15.57;100.00;101523.41;5172115;28;20088;-83
2023/05/08 06:59:12;;;;;;;13.82;7.65;;;15.40;99.90;;;15.51;100.00;101525.00;5187098;28;20809;-84
2023/05/08 07:01:45;;;;;;;11.80;6.95;;;15.40;99.90;;;15.47;100.00;101517.06;5167585;28;20048;-85
2023/05/08 07:04:17;;;;;;;12.10;7.05;;;15.40;99.90;;;15.52;100.00;101513.63;5174615;28;20103;-84
2023/05/08 07:06:49;;;;;;;10.18;5.45;;;15.50;99.90;;;15.66;100.00;101507.06;5168137;28;20034;-80
2023/05/08 07:09:21;;;;;;;12.70;5.50;;;15.60;99.90;;;15.94;100.00;101519.13;5185265;28;20054;-83
2023/05/08 07:11:53;;;;;;;10.18;5.05;;;15.80;99.90;;;16.05;100.00;101519.41;5162514;28;20046;-82
2023/05/08 07:14:27;;;;;;;9.65;5.43;;;15.90;99.90;;;16.05;100.00;101516.78;5178813;28;20045;-80
2023/05/08 07:17:05;;;;;;;9.98;5.20;;;15.90;99.90;;;16.09;100.00;101523.88;5170376;28;20057;-82
2023/05/08 07:19:38;;;;;;;8.63;5.18;;;15.90;99.90;;;16.05;100.00;101522.03;5174976;28;20093;-82
2023/05/08 07:22:10;;;;;;;9.02;5.78;;;16.00;99.90;;;16.09;100.00;101523.88;5174533;28;20041;-82
2023/05/08 07:24:42;;;;;;;10.70;6.40;;;16.00;99.90;;;16.10;100.00;101515.13;5179137;28;20148;-82
2023/05/08 07:27:14;;;;;;;12.18;6.75;;;16.00;99.90;;;16.12;100.00;101518.69;5169492;28;20046;-79
2023/05/08 07:29:47;;;;;;;11.32;6.72;;;16.00;99.90;;;16.13;100.00;101512.56;5177543;28;20108;-81
2023/05/08 07:32:20;;;;;;;9.98;6.13;;;16.00;99.90;;;16.20;100.00;101519.75;5167329;28;20077;-80
2023/05/08 07:34:52;;;;;;;14.68;6.97;;;16.10;99.90;;;16.26;100.00;101517.25;5168963;28;20467;-81
2023/05/08 07:37:24;;;;;;;10.13;5.93;;;16.10;99.90;;;16.35;100.00;101522.72;5179828;28;20041;-80
2023/05/08 07:39:56;;;;;;;11.77;6.40;;;16.20;99.90;;;16.42;100.00;101524.63;5180816;28;20034;-80
2023/05/08 07:42:28;;;;;;;12.75;6.80;;;16.30;99.90;;;16.51;100.00;101535.38;5183874;28;20038;-80
2023/05/08 07:45:02;;;;;;;12.15;6.70;;;16.40;99.90;;;16.57;100.00;101533.75;5161618;28;20046;-82
2023/05/08 07:47:34;;;;;;;11.85;6.75;;;16.50;99.90;;;16.49;100.00;101530.94;5169390;28;20052;-83
2023/05/08 07:50:07;;;;;;;12.43;7.13;;;16.40;99.90;;;16.46;100.00;101531.75;5168689;28;20061;-80
2023/05/08 07:52:39;;;;;;;11.88;7.03;;;16.40;99.90;;;16.44;100.00;101535.22;5168067;28;20046;-81
2023/05/08 07:55:11;;;;;;;11.02;6.50;;;16.30;99.90;;;16.49;100.00;101536.19;5164581;28;20251;-80
2023/05/08 07:57:44;;;;;;;10.52;6.25;;;16.40;99.90;;;16.57;100.00;101528.50;5176021;28;20034;-78
2023/05/08 08:00:18;;;;;;;15.48;6.07;;;16.40;99.90;;;16.67;100.00;101533.97;5175285;28;20140;-81
2023/05/08 08:02:50;;;;;;;9.02;5.38;;;16.50;99.90;;;16.84;100.00;101538.75;5168709;28;20064;-81
2023/05/08 08:05:22;;;;;;;12.48;6.03;;;16.60;99.90;;;16.96;100.00;101534.63;5178905;28;20060;-80
2023/05/08 08:07:54;;;;;;;9.65;5.45;;;16.70;99.90;;;17.01;100.00;101538.22;5166409;28;20057;-82
2023/05/08 08:10:27;;;;;;;9.82;5.85;;;16.70;99.90;;;17.13;100.00;101539.34;5168210;28;20038;-82
2023/05/08 08:13:00;;;;;;;9.25;6.15;;;16.80;99.90;;;17.28;100.00;101545.81;5168553;28;20053;-82
2023/05/08 08:15:33;;;;;;;9.20;5.28;;;16.90;99.90;;;17.41;100.00;101548.66;5190400;28;20144;-81
2023/05/08 08:18:06;;;;;;;9.35;5.95;;;17.10;99.90;;;17.52;100.00;101542.72;5172316;28;20054;-81
2023/05/08 08:20:38;;;;;;;10.48;6.13;;;17.10;99.90;;;17.59;100.00;101549.00;5183391;28;20046;-79
2023/05/08 08:23:10;;;;;;;7.82;5.22;;;17.30;99.90;;;17.64;100.00;101553.50;5179749;28;20415;-78
2023/05/08 08:25:42;;;;;;;11.60;5.85;;;17.30;99.90;;;17.70;100.00;101549.19;5178000;28;20080;-80
2023/05/08 08:28:14;;;;;;;8.68;5.97;;;17.40;99.90;;;17.71;100.00;101548.31;5169405;28;20061;-83
2023/05/08 08:30:47;;;;;;;8.43;5.47;;;17.40;99.90;;;17.71;100.00;101556.25;5192749;28;20455;-82
2023/05/08 08:33:20;;;;;;;11.23;5.97;;;17.40;99.90;;;17.66;100.00;101550.88;5186645;28;20045;-82
2023/05/08 08:35:52;;;;;;;9.23;5.95;;;17.40;99.90;;;17.65;100.00;101554.38;5169712;28;20042;-82
2023/05/08 08:38:23;;;;;;;8.60;5.22;;;17.40;99.90;;;17.67;100.00;101557.03;5159788;28;20054;-81
2023/05/08 08:40:56;;;;;;;8.50;5.15;;;17.40;99.90;;;17.69;100.00;101555.34;5171333;28;20420;-80
2023/05/08 08:43:27;;;;;;;9.27;5.97;;;17.40;99.90;;;17.67;100.00;101557.94;5178382;28;20045;-83
2023/05/08 08:46:03;;;;;;;8.63;5.47;;;17.40;99.90;;;17.63;100.00;101551.72;5171634;28;20050;-82
2023/05/08 08:48:38;;;;;;;9.43;5.82;;;17.40;99.90;;;17.62;100.00;101557.84;5171326;28;20504;-82
2023/05/08 08:51:18;;;;;;;8.30;4.90;;;17.40;99.90;;;17.62;100.00;101560.50;5192155;28;20462;-78
2023/05/08 08:54:04;;;;;;;8.73;4.85;;;17.40;99.90;;;17.66;100.00;101561.41;5169628;28;20082;-76
2023/05/08 08:56:41;;;;;;;8.60;5.35;;;17.40;99.90;;;17.67;100.00;101554.41;5171874;28;20062;-79
2023/05/08 08:59:15;;;;;;;9.85;5.60;;;17.50;99.90;;;17.72;100.00;101558.94;5176045;28;20056;-79
2023/05/08 09:01:56;;;;;;;8.75;4.93;;;17.60;99.90;;;17.77;100.00;101553.75;5175769;28;20042;-78
2023/05/08 09:04:30;;;;;;;9.25;5.45;;;17.70;99.90;;;17.73;100.00;101557.19;5176724;28;20045;-83
2023/05/08 09:07:04;;;;;;;11.30;6.78;;;17.60;99.90;;;17.58;100.00;101553.38;5173094;28;20047;-84
2023/05/08 09:09:40;;;;;;;8.70;5.50;;;17.50;99.90;;;17.43;100.00;101550.47;5174548;28;20069;-83
2023/05/08 09:12:13;;;;;;;10.02;6.05;;;17.40;99.90;;;17.29;100.00;101549.34;5174291;28;20061;-84
2023/05/08 09:14:45;;;;;;;8.57;5.43;;;17.20;99.90;;;17.22;100.00;101550.94;5180555;28;20038;-84
2023/05/08 09:17:19;;;;;;;9.98;6.47;;;17.20;99.90;;;17.14;100.00;101564.81;5169297;28;20050;-82
2023/05/08 09:19:52;;;;;;;10.02;6.00;;;17.00;99.90;;;17.03;100.00;101554.97;5180685;28;20128;-81
2023/05/08 09:22:26;;;;;;;8.65;5.57;;;17.00;99.90;;;17.03;100.00;101562.88;5180367;28;20120;-82
2023/05/08 09:25:01;;;;;;;11.18;6.38;;;16.90;99.90;;;16.97;100.00;101554.84;5184702;28;20044;-83
2023/05/08 09:27:34;;;;;;;12.73;6.82;;;16.90;99.90;;;16.84;100.00;101560.72;5171710;28;20052;-82
2023/05/08 09:30:08;;;;;;;9.85;5.65;;;16.80;99.90;;;16.78;100.00;101555.31;5189110;28;20049;-81
2023/05/08 09:32:44;;;;;;;;;;;16.70;99.90;;;16.72;100.00;101552.53;5168705;28;20497;-83
2023/05/08 09:35:16;;;;;;;8.52;5.40;;;16.60;99.90;;;16.75;100.00;101555.22;5165150;28;20344;-83
2023/05/08 09:37:48;;;;;;;9.23;6.07;;;16.60;99.90;;;16.78;100.00;101557.94;5189168;28;20057;-84
2023/05/08 09:40:22;;;;;;;8.18;5.07;;;16.60;99.90;;;16.80;100.00;101558.84;5174174;28;20068;-82
2023/05/08 09:42:54;;;;;;;9.00;5.47;;;16.60;99.90;;;16.80;100.00;101558.84;5188559;28;20038;-83
2023/05/08 09:45:28;;;;;;;10.00;6.45;;;16.60;99.90;;;16.76;100.00;101557.03;5168082;28;20038;-84
2023/05/08 09:48:02;;;;;;;7.97;5.43;;;16.60;99.90;;;16.71;100.00;101553.41;5168859;28;20046;-81
2023/05/08 09:50:34;;;;;;;8.48;5.25;;;16.60;99.90;;;16.68;100.00;101558.53;5180871;28;20053;-84
2023/05/08 09:53:06;;;;;;;10.85;6.30;;;16.50;99.90;;;16.66;100.00;101561.16;5190888;28;20042;-84
2023/05/08 09:55:48;;;;;;;12.20;6.35;;;16.50;99.90;;;16.63;100.00;101557.59;5184225;23;20034;-79
2023/05/08 09:58:22;;;;;;;9.82;6.13;;;16.50;99.90;;;16.58;100.00;101562.72;5150958;28;20423;-79
2023/05/08 10:00:54;;;;;;;8.63;5.57;;;16.40;99.90;;;16.59;100.00;101551.34;5153805;28;20038;-78
2023/05/08 10:03:46;;;;;;;13.38;6.10;;;16.50;99.90;;;16.71;100.00;101561.28;5171084;28;20046;-79
2023/05/08 10:06:18;;;;;;;11.55;6.57;;;16.60;99.90;;;16.74;100.00;101556.97;5150142;28;20051;-79
2023/05/08 10:09:07;;;;;;;9.20;5.75;;;16.60;99.90;;;16.72;100.00;101560.44;5147091;28;20294;-79
2023/05/08 10:11:40;;;;;;;11.50;6.43;;;16.60;99.90;;;16.70;100.00;101567.41;5139602;28;20393;-80
2023/05/08 10:14:12;;;;;;;10.27;6.07;;;16.60;99.90;;;16.66;100.00;101561.16;5148281;28;20049;-78
2023/05/08 10:16:47;;;;;;;10.15;6.38;;;16.50;99.90;;;16.65;100.00;101563.75;5148122;28;20085;-80
2023/05/08 10:19:23;;;;;;;9.40;5.68;;;16.50;99.90;;;16.62;100.00;101567.19;5149879;28;20066;-80
2023/05/08 10:21:56;;;;;;;10.60;6.80;;;16.50;99.90;;;16.61;100.00;101561.91;5147565;28;20039;-78
2023/05/08 10:24:33;;;;;;;10.23;6.25;;;16.50;99.90;;;16.59;100.00;101558.34;5157728;28;20568;-79
2023/05/08 10:27:14;;;;;;;10.10;6.03;;;16.50;99.90;;;16.59;100.00;101558.34;5149695;28;20051;-79
2023/05/08 10:29:52;;;;;;;9.18;5.25;;;16.40;99.90;;;16.59;100.00;101558.34;5101403;28;20047;-79
2023/05/08 10:32:25;;;;;;;7.35;4.78;;;16.40;99.90;;;16.65;100.00;101554.13;5140967;28;20055;-80
2023/05/08 10:35:00;;;;;;;8.07;5.72;;;16.50;99.90;;;16.72;100.00;101560.44;5130282;28;20106;-78
2023/05/08 10:37:35;;;;;;;10.05;5.78;;;16.50;99.90;;;16.76;100.00;101562.28;5145656;28;20046;-79